Time;durP1;ratioP1;P1;durP2;ratioP2;P2;SDS_P1;SDS_P2;PMS_P1;PMS_P2;Temp;Humidity;BMP_temperature;BMP_pressure;BME280_temperature;BME280_humidity;BME280_pressure;Samples;Min_cycle;Max_cycle;Signal;HPM_P1;HPM_P2
2022/12/13 00:00:36;;;;;;;113.93;37.85;;;-3.30;99.90;;;;;;5101851;28;20111;-73
2022/12/13 00:03:02;;;;;;;100.15;35.97;;;-3.30;99.90;;;;;;5101436;28;20016;-73
2022/12/13 00:05:27;;;;;;;101.90;38.80;;;-3.30;99.90;;;;;;5101095;28;20032;-74
2022/12/13 00:07:53;;;;;;;138.55;47.40;;;-3.30;99.90;;;;;;5100467;28;20035;-74
2022/12/13 00:10:18;;;;;;;145.27;50.90;;;-3.30;99.90;;;;;;5101722;28;20020;-74
2022/12/13 00:12:44;;;;;;;150.18;54.00;;;-3.30;99.90;;;;;;5102804;28;20034;-74
2022/12/13 00:15:10;;;;;;;127.57;45.25;;;-3.30;99.90;;;;;;5102754;28;20024;-72
2022/12/13 00:17:36;;;;;;;107.03;40.83;;;-3.30;99.90;;;;;;5102289;28;20028;-72
2022/12/13 00:20:03;;;;;;;120.43;45.25;;;-3.30;99.90;;;;;;5102463;28;20016;-72
2022/12/13 00:22:29;;;;;;;117.05;42.65;;;-3.30;99.90;;;;;;5102458;28;20020;-73
2022/12/13 00:24:57;;;;;;;119.68;41.78;;;-3.30;99.90;;;;;;5101952;28;20047;-72
2022/12/13 00:27:23;;;;;;;107.25;41.20;;;-3.30;99.90;;;;;;5101647;28;20052;-72
2022/12/13 00:29:49;;;;;;;105.88;39.30;;;-3.30;99.90;;;;;;5101173;28;20031;-74
2022/12/13 00:32:15;;;;;;;106.10;41.60;;;-3.30;99.90;;;;;;5102276;28;20032;-72
2022/12/13 00:34:41;;;;;;;112.43;39.03;;;-3.30;99.90;;;;;;5102441;28;20035;-73
2022/12/13 00:37:06;;;;;;;102.32;39.42;;;-3.30;99.90;;;;;;5101993;28;20024;-73
2022/12/13 00:39:32;;;;;;;102.35;40.17;;;-3.20;99.90;;;;;;5101104;28;20043;-73
2022/12/13 00:41:58;;;;;;;103.28;39.53;;;-3.20;99.90;;;;;;5101399;28;20044;-73
2022/12/13 00:44:25;;;;;;;99.55;37.72;;;-3.20;99.90;;;;;;5102019;28;20059;-73
2022/12/13 00:46:50;;;;;;;103.30;39.40;;;-3.20;99.90;;;;;;5101180;28;20047;-73
2022/12/13 00:49:16;;;;;;;99.72;38.30;;;-3.20;99.90;;;;;;5101788;28;20028;-74
2022/12/13 00:51:42;;;;;;;102.20;37.53;;;-3.20;99.90;;;;;;5101829;28;20118;-73
2022/12/13 00:54:09;;;;;;;101.22;37.17;;;-3.10;99.90;;;;;;5101625;28;20051;-73
2022/12/13 00:56:36;;;;;;;90.38;35.45;;;-3.20;99.90;;;;;;5101609;28;20045;-73
2022/12/13 00:59:03;;;;;;;95.35;36.03;;;-3.20;99.90;;;;;;5101554;28;20032;-72
2022/12/13 01:01:31;;;;;;;98.93;38.28;;;-3.20;99.90;;;;;;5101099;28;20129;-73
2022/12/13 01:03:59;;;;;;;93.40;37.85;;;-3.20;99.90;;;;;;5099778;28;20020;-73
2022/12/13 01:06:37;;;;;;;97.88;36.10;;;-3.20;99.90;;;;;;5100770;28;20032;-73
2022/12/13 01:09:06;;;;;;;100.07;36.25;;;-3.20;99.90;;;;;;5101159;28;20028;-73
2022/12/13 01:11:33;;;;;;;104.18;37.03;;;-3.20;99.90;;;;;;5100922;28;20035;-72
2022/12/13 01:13:58;;;;;;;81.32;34.10;;;-3.20;99.90;;;;;;5099851;28;20028;-73
2022/12/13 01:16:24;;;;;;;87.25;34.85;;;-3.20;99.90;;;;;;5100239;28;20100;-73
2022/12/13 01:18:49;;;;;;;89.47;33.20;;;-3.20;99.90;;;;;;5100021;28;20020;-73
2022/12/13 01:21:18;;;;;;;86.30;33.05;;;-3.20;99.90;;;;;;5099840;28;20028;-73
2022/12/13 01:23:44;;;;;;;90.55;32.17;;;-3.20;99.90;;;;;;5101732;28;20052;-73
2022/12/13 01:26:13;;;;;;;84.10;32.50;;;-3.20;99.90;;;;;;5101263;28;20095;-73
2022/12/13 01:28:39;;;;;;;81.63;32.25;;;-3.30;99.90;;;;;;5101244;28;20024;-73
2022/12/13 01:31:11;;;;;;;81.68;33.28;;;-3.20;99.90;;;;;;5101430;28;20054;-73
2022/12/13 01:33:37;;;;;;;83.32;32.20;;;-3.30;99.90;;;;;;5100992;28;20433;-73
2022/12/13 01:36:06;;;;;;;84.00;32.92;;;-3.30;99.90;;;;;;5101097;28;20024;-74
2022/12/13 01:38:32;;;;;;;88.75;33.72;;;-3.30;99.90;;;;;;5099843;28;20608;-74
2022/12/13 01:40:58;;;;;;;87.40;33.83;;;-3.30;99.90;;;;;;5100107;28;20027;-74
2022/12/13 01:43:40;;;;;;;81.00;31.65;;;-3.30;99.90;;;;;;5100031;28;20028;-73
2022/12/13 01:46:06;;;;;;;84.70;31.55;;;-3.30;99.90;;;;;;5101058;28;20032;-74
2022/12/13 01:48:38;;;;;;;83.05;31.30;;;-3.30;99.90;;;;;;5099470;28;20031;-73
2022/12/13 01:51:05;;;;;;;77.43;31.92;;;-3.30;99.90;;;;;;5101090;28;20037;-73
2022/12/13 01:53:35;;;;;;;91.80;32.75;;;-3.30;99.90;;;;;;5101076;28;20103;-74
2022/12/13 01:56:11;;;;;;;84.65;31.38;;;-3.40;99.90;;;;;;5100580;28;20488;-74
2022/12/13 01:58:38;;;;;;;88.55;32.20;;;-3.40;99.90;;;;;;5100876;28;20051;-74
2022/12/13 02:01:03;;;;;;;82.30;31.38;;;-3.40;99.90;;;;;;5099363;28;20035;-74
2022/12/13 02:03:30;;;;;;;77.57;30.80;;;-3.50;99.90;;;;;;5100406;28;20032;-74
2022/12/13 02:06:04;;;;;;;79.35;30.55;;;-3.50;99.90;;;;;;5101590;28;20123;-75
2022/12/13 02:08:30;;;;;;;81.82;30.17;;;-3.20;99.90;;;;;;5105214;28;20035;-74
2022/12/13 02:10:57;;;;;;;86.30;30.65;;;-1.90;99.90;;;;;;5103721;28;20024;-75
2022/12/13 02:13:23;;;;;;;86.88;31.90;;;-1.40;99.90;;;;;;5105349;28;20024;-75
2022/12/13 02:16:00;;;;;;;83.07;31.48;;;-1.40;99.90;;;;;;5105264;28;21240;-74
2022/12/13 02:18:52;;;;;;;86.93;31.58;;;-1.80;99.90;;;;;;5103498;28;20040;-74
2022/12/13 02:21:36;;;;;;;91.60;31.13;;;-2.20;99.90;;;;;;5104589;28;20024;-74
2022/12/13 02:24:10;;;;;;;74.53;29.52;;;-2.60;99.90;;;;;;5102713;28;20055;-75
2022/12/13 02:27:16;;;;;;;90.25;32.17;;;-2.90;99.90;;;;;;5104324;28;20032;-74
2022/12/13 02:29:54;;;;;;;87.57;33.08;;;-3.10;99.90;;;;;;5104384;28;20035;-74
2022/12/13 02:32:42;;;;;;;88.72;34.35;;;-3.30;99.90;;;;;;5104776;28;20089;-74
2022/12/13 02:35:22;;;;;;;90.25;32.83;;;-3.50;99.90;;;;;;5103533;28;20024;-74
2022/12/13 02:38:16;;;;;;;86.78;31.33;;;-3.50;99.90;;;;;;5104695;28;20051;-75
2022/12/13 02:41:02;;;;;;;86.22;32.58;;;-3.60;99.90;;;;;;5104166;28;20065;-74
2022/12/13 02:43:52;;;;;;;88.47;32.13;;;-3.60;99.90;;;;;;5103969;28;20032;-73
2022/12/13 02:46:21;;;;;;;83.07;30.92;;;-3.60;99.90;;;;;;5104603;28;20032;-74
2022/12/13 02:48:50;;;;;;;84.47;33.13;;;-3.70;99.90;;;;;;5103091;28;20157;-74
2022/12/13 02:51:17;;;;;;;88.65;32.65;;;-3.70;99.90;;;;;;5104289;28;20020;-74
2022/12/13 02:53:45;;;;;;;85.80;34.75;;;-3.70;99.90;;;;;;5103768;28;20160;-74
2022/12/13 02:56:11;;;;;;;92.32;33.42;;;-3.80;99.90;;;;;;5103730;28;20016;-74
2022/12/13 02:58:41;;;;;;;83.75;34.05;;;-3.80;99.90;;;;;;5103723;28;20035;-73
2022/12/13 03:01:10;;;;;;;92.95;33.38;;;-3.80;99.90;;;;;;5103859;28;20099;-74
2022/12/13 03:03:41;;;;;;;81.75;32.53;;;-3.90;99.90;;;;;;5103673;28;20476;-73
2022/12/13 03:06:31;;;;;;;85.57;31.80;;;-3.90;99.90;;;;;;5103715;28;20533;-73
2022/12/13 03:09:08;;;;;;;87.70;31.20;;;-3.90;99.90;;;;;;5103433;28;20023;-74
2022/12/13 03:15:30;;;;;;;90.78;32.33;;;-3.90;99.90;;;;;;5106944;28;20039;-73
2022/12/13 03:18:14;;;;;;;85.53;32.38;;;-4.00;99.90;;;;;;5102128;28;20097;-74
2022/12/13 03:20:54;;;;;;;86.93;33.10;;;-4.00;99.90;;;;;;5102189;28;20097;-72
2022/12/13 03:23:21;;;;;;;79.90;30.33;;;-3.90;99.90;;;;;;5103718;28;20051;-74
2022/12/13 03:25:51;;;;;;;83.68;33.08;;;-3.90;99.90;;;;;;5103444;28;20419;-75
2022/12/13 03:28:16;;;;;;;78.57;31.85;;;-3.90;99.90;;;;;;5101629;28;20052;-74
2022/12/13 03:30:42;;;;;;;84.65;34.13;;;-3.90;99.90;;;;;;5103609;28;20069;-75
2022/12/13 03:33:08;;;;;;;83.30;31.33;;;-3.90;99.90;;;;;;5103274;28;20035;-74
2022/12/13 03:35:34;;;;;;;94.63;33.00;;;-3.90;99.90;;;;;;5101969;28;20085;-75
2022/12/13 03:38:01;;;;;;;77.88;32.45;;;-3.90;99.90;;;;;;5103708;28;20032;-75
2022/12/13 03:40:28;;;;;;;83.57;31.75;;;-3.90;99.90;;;;;;5103649;28;20020;-75
2022/12/13 03:42:54;;;;;;;87.57;33.03;;;-4.00;99.90;;;;;;5102888;28;20019;-75
2022/12/13 03:45:20;;;;;;;92.35;32.08;;;-3.90;99.90;;;;;;5102943;28;20028;-74
2022/12/13 03:47:45;;;;;;;86.55;32.97;;;-4.00;99.90;;;;;;5102593;28;20046;-74
2022/12/13 03:50:11;;;;;;;85.38;31.20;;;-4.10;99.90;;;;;;5102934;28;20020;-74
2022/12/13 03:52:37;;;;;;;91.43;33.10;;;-4.10;99.90;;;;;;5101179;28;20028;-74
2022/12/13 03:55:03;;;;;;;76.15;30.73;;;-4.10;99.90;;;;;;5103043;28;20032;-74
2022/12/13 03:57:28;;;;;;;92.38;31.92;;;-4.00;99.90;;;;;;5102926;28;20044;-75
2022/12/13 03:59:54;;;;;;;81.50;32.80;;;-3.90;99.90;;;;;;5102103;28;20074;-75
2022/12/13 04:02:20;;;;;;;87.15;31.70;;;-3.90;99.90;;;;;;5103185;28;20043;-76
2022/12/13 04:04:46;;;;;;;74.03;28.52;;;-3.90;99.90;;;;;;5101703;28;20040;-74
2022/12/13 04:07:11;;;;;;;71.95;28.88;;;-3.90;99.90;;;;;;5101230;28;20028;-74
2022/12/13 04:09:37;;;;;;;75.72;28.88;;;-3.90;99.90;;;;;;5102327;28;20035;-74
2022/12/13 04:14:47;;;;;;;81.88;30.20;;;-3.90;99.90;;;;;;5103015;28;20046;-75
2022/12/13 04:17:13;;;;;;;76.13;30.05;;;-3.90;99.90;;;;;;5102445;28;20075;-75
2022/12/13 04:19:38;;;;;;;79.35;31.33;;;-3.90;99.90;;;;;;5102459;28;20023;-74
2022/12/13 04:22:04;;;;;;;87.40;32.25;;;-3.90;99.90;;;;;;5099835;28;20020;-75
2022/12/13 04:24:30;;;;;;;74.43;29.40;;;-4.00;99.90;;;;;;5100031;28;20076;-75
2022/12/13 04:26:55;;;;;;;74.93;29.90;;;-4.00;99.90;;;;;;5101021;28;20016;-76
2022/12/13 04:29:21;;;;;;;86.93;31.88;;;-3.90;99.90;;;;;;5101026;28;20024;-75
2022/12/13 04:31:46;;;;;;;79.00;30.15;;;-3.90;99.90;;;;;;5102754;28;20020;-74
2022/12/13 04:34:12;;;;;;;81.43;29.20;;;-3.90;99.90;;;;;;5102236;28;20155;-75
2022/12/13 04:36:37;;;;;;;74.85;30.75;;;-3.90;99.90;;;;;;5102049;28;20044;-74
2022/12/13 04:39:05;;;;;;;75.80;31.00;;;-3.90;99.90;;;;;;5099631;28;20031;-74
2022/12/13 04:41:39;;;;;;;89.10;30.60;;;-3.80;99.90;;;;;;5101257;28;20023;-75
2022/12/13 04:44:08;;;;;;;80.28;30.17;;;-3.80;99.90;;;;;;5102015;28;20047;-73
2022/12/13 04:46:34;;;;;;;75.15;29.25;;;-3.70;99.90;;;;;;5101821;28;20635;-74
2022/12/13 04:49:00;;;;;;;71.15;27.88;;;-3.70;99.90;;;;;;5101530;28;20071;-74
2022/12/13 04:51:25;;;;;;;79.97;30.90;;;-3.60;99.90;;;;;;5100531;28;20028;-75
2022/12/13 04:53:51;;;;;;;82.10;29.60;;;-3.60;99.90;;;;;;5102295;28;20043;-75
2022/12/13 04:56:17;;;;;;;80.65;30.25;;;-3.60;99.90;;;;;;5101829;28;20055;-75
2022/12/13 04:58:43;;;;;;;75.30;30.35;;;-3.60;99.90;;;;;;5100147;28;20016;-76
2022/12/13 05:01:10;;;;;;;81.07;30.50;;;-3.60;99.90;;;;;;5100892;28;20020;-77
2022/12/13 05:03:37;;;;;;;79.38;30.27;;;-3.60;99.90;;;;;;5101659;28;20056;-76
2022/12/13 05:06:04;;;;;;;77.10;28.98;;;-3.50;99.90;;;;;;5100050;28;20024;-77
2022/12/13 05:08:30;;;;;;;77.68;30.70;;;-3.50;99.90;;;;;;5101760;28;20499;-75
2022/12/13 05:10:56;;;;;;;80.15;30.42;;;-3.50;99.90;;;;;;5101166;28;20083;-73
2022/12/13 05:13:21;;;;;;;83.25;30.17;;;-3.50;99.90;;;;;;5101264;28;20057;-74
2022/12/13 05:15:54;;;;;;;78.95;30.70;;;-3.40;99.90;;;;;;5101395;28;20084;-74
2022/12/13 05:18:20;;;;;;;80.35;29.92;;;-3.40;99.90;;;;;;5099386;28;20016;-76
2022/12/13 05:20:45;;;;;;;79.00;30.05;;;-3.40;99.90;;;;;;5101788;28;20452;-76
2022/12/13 05:23:11;;;;;;;81.50;30.60;;;-3.50;99.90;;;;;;5099515;28;20047;-76
2022/12/13 05:25:36;;;;;;;74.18;27.80;;;-3.40;99.90;;;;;;5100670;28;20055;-75
2022/12/13 05:28:02;;;;;;;74.28;28.60;;;-3.40;99.90;;;;;;5100973;28;20085;-75
2022/12/13 05:30:28;;;;;;;77.95;30.75;;;-3.40;99.90;;;;;;5101244;28;20028;-77
2022/12/13 05:32:53;;;;;;;78.57;30.33;;;-3.40;99.90;;;;;;5099732;28;20047;-77
2022/12/13 05:35:19;;;;;;;80.82;30.85;;;-3.40;99.90;;;;;;5101000;28;20024;-77
2022/12/13 05:37:46;;;;;;;96.55;34.85;;;-3.40;99.90;;;;;;5100135;28;20038;-77
2022/12/13 05:40:12;;;;;;;114.25;39.10;;;-3.30;99.90;;;;;;5100339;28;20023;-76
2022/12/13 05:42:38;;;;;;;104.13;38.92;;;-3.30;99.90;;;;;;5098643;28;20107;-76
2022/12/13 05:45:06;;;;;;;90.72;36.60;;;-3.30;99.90;;;;;;5101202;28;20024;-75
2022/12/13 05:47:32;;;;;;;77.95;29.23;;;-3.30;99.90;;;;;;5098896;28;20027;-76
2022/12/13 05:49:57;;;;;;;83.57;29.85;;;-3.20;99.90;;;;;;5100546;28;20052;-76
2022/12/13 05:52:23;;;;;;;74.53;30.90;;;-3.20;99.90;;;;;;5100387;28;20028;-76
2022/12/13 05:54:55;;;;;;;76.57;29.92;;;-3.10;99.90;;;;;;5099320;28;20020;-76
2022/12/13 05:57:20;;;;;;;73.82;29.95;;;-3.10;99.90;;;;;;5099875;28;20069;-75
2022/12/13 05:59:46;;;;;;;80.50;29.38;;;-3.00;99.90;;;;;;5100549;28;20096;-76
2022/12/13 06:02:12;;;;;;;87.50;30.25;;;-3.00;99.90;;;;;;5101063;28;20024;-75
2022/12/13 06:04:38;;;;;;;80.65;30.40;;;-3.00;99.90;;;;;;5100982;28;20023;-75
2022/12/13 06:07:04;;;;;;;75.82;30.02;;;-3.00;99.90;;;;;;5100191;28;20032;-75
2022/12/13 06:09:30;;;;;;;79.25;29.95;;;-2.90;99.90;;;;;;5100597;28;20024;-74
2022/12/13 06:11:55;;;;;;;78.13;31.25;;;-2.90;99.90;;;;;;5100528;28;20042;-74
2022/12/13 06:14:21;;;;;;;84.45;31.83;;;-2.90;99.90;;;;;;5100529;28;20032;-75
2022/12/13 06:16:47;;;;;;;79.20;31.08;;;-2.90;99.90;;;;;;5100788;28;20509;-74
2022/12/13 06:19:12;;;;;;;80.85;29.95;;;-2.90;99.90;;;;;;5100837;28;20032;-73
2022/12/13 06:21:38;;;;;;;77.40;28.40;;;-2.80;99.90;;;;;;5100137;28;20016;-72
2022/12/13 06:24:04;;;;;;;66.55;27.90;;;-2.80;99.90;;;;;;5100330;28;20044;-73
2022/12/13 06:26:30;;;;;;;77.72;28.70;;;-2.90;99.90;;;;;;5100477;28;20470;-72
2022/12/13 06:28:56;;;;;;;68.25;28.42;;;-2.80;99.90;;;;;;5097143;28;20028;-75
2022/12/13 06:31:21;;;;;;;78.88;29.70;;;-2.90;99.90;;;;;;5099510;28;20024;-74
2022/12/13 06:33:47;;;;;;;75.88;28.48;;;-2.90;99.90;;;;;;5099144;28;20031;-75
2022/12/13 06:36:12;;;;;;;76.32;29.40;;;-2.90;99.90;;;;;;5099432;28;20070;-74
2022/12/13 06:38:38;;;;;;;81.53;32.35;;;-2.90;99.90;;;;;;5099826;28;20135;-76
2022/12/13 06:41:16;;;;;;;68.95;29.88;;;-2.90;99.90;;;;;;5098363;28;20061;-75
2022/12/13 06:43:46;;;;;;;73.95;31.08;;;-2.90;99.90;;;;;;5097155;28;20032;-74
2022/12/13 06:46:12;;;;;;;79.00;30.58;;;-2.90;99.90;;;;;;5095446;28;20077;-75
2022/12/13 06:48:39;;;;;;;70.25;30.45;;;-3.00;99.90;;;;;;5098378;28;20032;-74
2022/12/13 06:51:06;;;;;;;88.03;31.65;;;-3.00;99.90;;;;;;5099051;28;20210;-74
2022/12/13 06:53:34;;;;;;;73.03;29.00;;;-3.00;99.90;;;;;;5101233;28;20032;-74
2022/12/13 06:56:08;;;;;;;70.45;28.25;;;-3.00;99.90;;;;;;5097702;28;20093;-74
2022/12/13 06:58:34;;;;;;;74.30;28.58;;;-2.90;99.90;;;;;;5103377;28;20119;-74
2022/12/13 07:01:14;;;;;;;74.57;28.27;;;-2.90;99.90;;;;;;5103578;28;20032;-74
2022/12/13 07:03:40;;;;;;;76.95;28.88;;;-2.90;99.90;;;;;;5102771;28;20024;-74
2022/12/13 07:06:10;;;;;;;76.07;29.75;;;-2.90;99.90;;;;;;5099951;28;20077;-76
2022/12/13 07:08:36;;;;;;;84.00;30.13;;;-2.90;99.90;;;;;;5103173;28;20122;-74
2022/12/13 07:11:02;;;;;;;71.10;29.23;;;-2.90;99.90;;;;;;5103730;28;20020;-74
2022/12/13 07:13:27;;;;;;;85.78;29.55;;;-2.90;99.90;;;;;;5103920;28;20036;-76
2022/12/13 07:15:53;;;;;;;87.82;29.90;;;-2.80;99.90;;;;;;5103747;28;20042;-74
2022/12/13 07:18:19;;;;;;;78.65;30.35;;;-2.80;99.90;;;;;;5103669;28;20468;-75
2022/12/13 07:20:45;;;;;;;75.07;28.90;;;-2.80;99.90;;;;;;5102475;28;20020;-73
2022/12/13 07:23:11;;;;;;;78.43;30.77;;;-2.80;99.90;;;;;;5101933;28;20036;-75
2022/12/13 07:25:36;;;;;;;79.78;29.63;;;-2.70;99.90;;;;;;5100324;28;20043;-74
2022/12/13 07:28:05;;;;;;;78.45;30.60;;;-2.80;99.90;;;;;;5103398;28;20040;-73
2022/12/13 07:30:36;;;;;;;75.97;30.23;;;-2.70;99.90;;;;;;5102601;28;20168;-73
2022/12/13 07:33:03;;;;;;;77.38;30.05;;;-2.70;99.90;;;;;;5104071;28;20024;-73
2022/12/13 07:35:29;;;;;;;74.53;29.27;;;-2.70;99.90;;;;;;5103197;28;20085;-73
2022/12/13 07:37:55;;;;;;;79.13;29.98;;;-2.70;99.90;;;;;;5102465;28;20032;-74
2022/12/13 07:40:21;;;;;;;85.40;31.30;;;-2.70;99.90;;;;;;5101630;28;20020;-74
2022/12/13 07:42:55;;;;;;;86.78;30.92;;;-2.70;99.90;;;;;;5103651;28;20035;-74
2022/12/13 07:45:22;;;;;;;87.60;30.90;;;-2.70;99.90;;;;;;5102508;28;20039;-74
2022/12/13 07:47:48;;;;;;;100.53;33.03;;;-2.70;99.90;;;;;;5101911;28;20028;-73
2022/12/13 07:50:14;;;;;;;103.60;31.05;;;-2.70;99.90;;;;;;5097698;28;20031;-74
2022/12/13 07:52:41;;;;;;;104.18;33.55;;;-2.70;99.90;;;;;;5100266;28;20044;-73
2022/12/13 07:55:07;;;;;;;114.95;31.65;;;-2.60;99.90;;;;;;5102308;28;20024;-72
2022/12/13 07:57:33;;;;;;;100.85;34.20;;;-2.60;99.90;;;;;;5102314;28;20055;-73
2022/12/13 07:59:59;;;;;;;112.53;30.58;;;-2.60;99.90;;;;;;5102092;28;20050;-75
2022/12/13 08:02:25;;;;;;;143.27;36.67;;;-2.60;99.90;;;;;;5099399;28;20108;-73
2022/12/13 08:04:51;;;;;;;104.13;32.92;;;-2.60;99.90;;;;;;5097243;28;20035;-74
2022/12/13 08:07:16;;;;;;;110.60;36.42;;;-2.60;99.90;;;;;;5100816;28;20017;-75
2022/12/13 08:09:43;;;;;;;99.78;34.05;;;-2.60;99.90;;;;;;5101987;28;20032;-74
2022/12/13 08:12:09;;;;;;;109.25;33.13;;;-2.50;99.90;;;;;;5101748;28;20028;-74
2022/12/13 08:14:34;;;;;;;106.65;32.88;;;-2.50;99.90;;;;;;5101015;28;20064;-74
2022/12/13 08:17:00;;;;;;;99.60;33.42;;;-2.50;99.90;;;;;;5102708;28;20491;-73
2022/12/13 08:19:26;;;;;;;141.30;36.25;;;-2.50;99.90;;;;;;5100692;28;20036;-74
2022/12/13 08:21:51;;;;;;;130.38;35.72;;;-2.60;99.90;;;;;;5102811;28;20095;-74
2022/12/13 08:24:20;;;;;;;113.68;31.33;;;-2.60;99.90;;;;;;5102404;28;20044;-71
2022/12/13 08:26:46;;;;;;;218.80;36.03;;;-2.60;99.90;;;;;;5101816;28;20024;-74
2022/12/13 08:29:12;;;;;;;185.43;36.17;;;-2.60;99.90;;;;;;5100926;28;20039;-74
2022/12/13 08:31:38;;;;;;;297.20;38.72;;;-2.60;99.90;;;;;;5100217;28;20334;-73
2022/12/13 08:34:04;;;;;;;219.90;33.05;;;-2.60;99.90;;;;;;5102016;28;20028;-71
2022/12/13 08:36:29;;;;;;;154.32;36.47;;;-2.60;99.90;;;;;;5102775;28;20043;-75
2022/12/13 08:38:55;;;;;;;171.05;33.58;;;-2.60;99.90;;;;;;5103271;28;20027;-73
2022/12/13 08:41:21;;;;;;;176.10;37.15;;;-2.70;99.90;;;;;;5101788;28;20020;-76
2022/12/13 08:43:47;;;;;;;198.75;42.17;;;-2.70;99.90;;;;;;5102122;28;20050;-75
2022/12/13 08:46:13;;;;;;;312.17;39.90;;;-2.60;99.90;;;;;;5100382;28;20032;-73
2022/12/13 08:48:40;;;;;;;129.93;35.53;;;-2.60;99.90;;;;;;5101755;28;20133;-74
2022/12/13 08:51:11;;;;;;;240.65;38.38;;;-2.60;99.90;;;;;;5100501;28;20028;-72
2022/12/13 08:53:37;;;;;;;173.57;36.55;;;-2.60;99.90;;;;;;5098073;28;20008;-75
2022/12/13 08:56:06;;;;;;;128.60;31.70;;;-2.60;99.90;;;;;;5098149;28;20040;-74
2022/12/13 08:58:31;;;;;;;107.28;36.60;;;-2.60;99.90;;;;;;5099351;28;20028;-74
2022/12/13 09:00:57;;;;;;;116.05;36.58;;;-2.60;99.90;;;;;;5093040;28;20058;-74
2022/12/13 09:03:23;;;;;;;219.18;37.05;;;-2.60;99.90;;;;;;5099077;28;20574;-75
2022/12/13 09:05:49;;;;;;;188.73;36.28;;;-2.50;99.90;;;;;;5101355;28;20020;-75
2022/12/13 09:08:15;;;;;;;236.75;38.67;;;-2.50;99.90;;;;;;5100507;28;20085;-74
2022/12/13 09:10:41;;;;;;;148.82;32.60;;;-2.50;99.90;;;;;;5095382;28;20036;-75
2022/12/13 09:13:07;;;;;;;182.05;35.60;;;-2.50;99.90;;;;;;5093229;28;20035;-75
2022/12/13 09:15:32;;;;;;;321.65;38.00;;;-2.50;99.90;;;;;;5098364;28;20032;-72
2022/12/13 09:17:58;;;;;;;156.70;37.80;;;-2.60;99.90;;;;;;5099995;28;20048;-74
2022/12/13 09:20:24;;;;;;;289.42;39.70;;;-2.60;99.90;;;;;;5098431;28;20387;-75
2022/12/13 09:22:50;;;;;;;295.48;41.65;;;-2.60;99.90;;;;;;5099220;28;20036;-76
2022/12/13 09:25:16;;;;;;;192.68;36.95;;;-2.60;99.90;;;;;;5097241;28;20032;-73
2022/12/13 09:27:42;;;;;;;220.27;39.72;;;-2.50;99.90;;;;;;5095195;28;20481;-73
2022/12/13 09:30:12;;;;;;;150.75;37.65;;;-2.50;99.90;;;;;;5099134;28;20024;-74
2022/12/13 09:32:39;;;;;;;197.68;41.25;;;-2.50;99.90;;;;;;5100150;28;20020;-74
2022/12/13 09:35:06;;;;;;;126.68;39.63;;;-2.40;99.90;;;;;;5098745;28;20091;-75
2022/12/13 09:37:31;;;;;;;197.23;39.30;;;-2.40;99.90;;;;;;5100979;28;20035;-72
2022/12/13 09:39:57;;;;;;;136.98;37.90;;;-2.30;99.90;;;;;;5097659;28;20081;-73
2022/12/13 09:42:29;;;;;;;103.78;37.67;;;-2.30;99.90;;;;;;5099165;28;20035;-74
2022/12/13 09:44:58;;;;;;;132.25;36.28;;;-2.30;99.90;;;;;;5100257;28;20020;-74
2022/12/13 09:47:40;;;;;;;300.40;41.53;;;-2.30;99.90;;;;;;5099949;28;20039;-74
2022/12/13 09:50:16;;;;;;;256.17;39.53;;;-2.30;99.90;;;;;;5098153;28;20028;-75
2022/12/13 09:52:44;;;;;;;216.63;40.70;;;-2.30;99.90;;;;;;5098548;28;20028;-74
2022/12/13 09:55:31;;;;;;;234.50;38.17;;;-2.30;99.90;;;;;;5098498;28;20031;-74
2022/12/13 09:57:59;;;;;;;111.32;34.83;;;-2.30;99.90;;;;;;5099530;28;20032;-74
2022/12/13 10:00:32;;;;;;;265.92;36.28;;;-2.30;99.90;;;;;;5099029;28;20145;-75
2022/12/13 10:02:58;;;;;;;236.00;37.70;;;-2.30;99.90;;;;;;5098311;28;20029;-72
2022/12/13 10:05:35;;;;;;;200.18;34.63;;;-2.30;99.90;;;;;;5096563;28;20020;-73
2022/12/13 10:08:05;;;;;;;230.40;37.22;;;-2.30;99.90;;;;;;5094039;28;20088;-74
2022/12/13 10:10:31;;;;;;;148.95;36.75;;;-2.30;99.90;;;;;;5098059;28;20032;-73
2022/12/13 10:13:13;;;;;;;120.32;37.90;;;-2.30;99.90;;;;;;5099627;28;20028;-74
2022/12/13 10:16:21;;;;;;;163.80;40.72;;;-2.30;99.90;;;;;;5099504;28;20020;-72
2022/12/13 10:18:47;;;;;;;122.82;41.28;;;-2.30;99.90;;;;;;5096599;28;20055;-71
2022/12/13 10:21:27;;;;;;;177.60;39.67;;;-2.30;99.90;;;;;;5100602;28;20024;-70
2022/12/13 10:23:52;;;;;;;131.70;37.95;;;-2.20;99.90;;;;;;5099069;28;20044;-73
2022/12/13 10:26:18;;;;;;;129.70;37.10;;;-2.20;99.90;;;;;;5098095;28;20036;-75
2022/12/13 10:28:44;;;;;;;162.65;35.97;;;-2.20;99.90;;;;;;5099459;28;20032;-75
2022/12/13 10:31:18;;;;;;;103.07;35.47;;;-2.20;99.90;;;;;;5104121;28;20067;-73
2022/12/13 10:33:56;;;;;;;158.38;39.75;;;-2.20;99.90;;;;;;5104433;28;20016;-73
2022/12/13 10:36:37;;;;;;;172.23;39.95;;;-2.20;99.90;;;;;;5102719;28;20067;-73
2022/12/13 10:39:03;;;;;;;168.30;37.55;;;-2.10;99.90;;;;;;5101184;28;20028;-73
2022/12/13 10:41:38;;;;;;;155.73;38.40;;;-2.10;99.90;;;;;;5103292;28;20032;-74
2022/12/13 10:44:08;;;;;;;116.30;38.45;;;-2.10;99.90;;;;;;5103989;28;20024;-74
2022/12/13 10:46:35;;;;;;;186.00;40.55;;;-2.10;99.90;;;;;;5103798;28;20430;-74
2022/12/13 10:49:00;;;;;;;147.75;37.15;;;-2.10;99.90;;;;;;5101428;28;20028;-72
2022/12/13 10:51:26;;;;;;;177.10;46.13;;;-2.10;99.90;;;;;;5098517;28;20020;-74
2022/12/13 10:53:58;;;;;;;124.20;42.10;;;-2.10;99.90;;;;;;5104305;28;20020;-74
2022/12/13 10:56:39;;;;;;;310.95;44.00;;;-2.10;99.90;;;;;;5103649;28;20036;-75
2022/12/13 10:59:19;;;;;;;115.40;29.08;;;-2.10;99.90;;;;;;5103732;28;20468;-74
2022/12/13 11:01:45;;;;;;;133.57;36.08;;;-2.00;99.90;;;;;;5102123;28;20023;-73
2022/12/13 11:04:40;;;;;;;135.05;39.35;;;-2.00;99.90;;;;;;5102136;28;20034;-73
2022/12/13 11:07:28;;;;;;;115.95;38.40;;;-1.90;99.90;;;;;;5103874;28;20071;-75
2022/12/13 11:09:54;;;;;;;141.93;41.53;;;-1.90;99.90;;;;;;5101085;28;20036;-75
2022/12/13 11:12:23;;;;;;;129.00;40.58;;;-1.90;99.90;;;;;;5099922;28;20032;-73
2022/12/13 11:15:03;;;;;;;150.18;43.00;;;-1.80;99.90;;;;;;5097347;28;20028;-75
2022/12/13 11:17:31;;;;;;;148.73;41.20;;;-1.80;99.90;;;;;;5101571;28;20073;-74
2022/12/13 11:20:01;;;;;;;124.30;37.63;;;-1.70;99.90;;;;;;5099554;28;20024;-74
2022/12/13 11:22:29;;;;;;;133.27;38.95;;;-1.70;99.90;;;;;;5101700;28;20028;-74
2022/12/13 11:25:06;;;;;;;232.57;40.55;;;-1.70;99.90;;;;;;5102472;28;20036;-72
2022/12/13 11:27:35;;;;;;;335.25;41.03;;;-1.70;99.90;;;;;;5099150;28;20031;-74
2022/12/13 11:30:09;;;;;;;129.85;40.10;;;-1.70;99.90;;;;;;5102193;28;20024;-73
2022/12/13 11:32:56;;;;;;;124.05;36.13;;;-1.70;99.90;;;;;;5099074;28;20056;-73
2022/12/13 11:35:52;;;;;;;108.97;38.85;;;-1.70;99.90;;;;;;5101236;28;20035;-74
2022/12/13 11:38:38;;;;;;;107.68;37.83;;;-1.70;99.90;;;;;;5099077;28;20032;-75
2022/12/13 11:41:32;;;;;;;140.48;41.38;;;-1.60;99.90;;;;;;5100506;28;20063;-74
2022/12/13 11:44:05;;;;;;;120.55;39.55;;;-1.70;99.90;;;;;;5101441;28;20027;-76
2022/12/13 11:46:41;;;;;;;127.47;39.60;;;-1.60;99.90;;;;;;5102439;28;20053;-72
2022/12/13 11:49:19;;;;;;;112.57;38.95;;;-1.60;99.90;;;;;;5100474;28;20036;-74
2022/12/13 11:51:52;;;;;;;124.60;37.22;;;-1.60;99.90;;;;;;5101435;28;20024;-73
2022/12/13 11:54:32;;;;;;;118.57;39.33;;;-1.60;99.90;;;;;;5102371;28;20031;-73
2022/12/13 11:57:06;;;;;;;128.48;40.97;;;-1.60;99.90;;;;;;5099644;28;20100;-73
2022/12/13 11:59:44;;;;;;;111.35;38.80;;;-1.60;99.90;;;;;;5101081;28;20069;-72
2022/12/13 12:02:25;;;;;;;118.65;36.63;;;-1.60;99.90;;;;;;5102468;28;20039;-73
2022/12/13 12:04:55;;;;;;;127.65;41.80;;;-1.50;99.90;;;;;;5102588;28;20048;-72
2022/12/13 12:07:29;;;;;;;149.05;42.60;;;-1.60;99.90;;;;;;5102434;28;20076;-73
2022/12/13 12:10:18;;;;;;;117.88;39.75;;;-1.60;99.90;;;;;;5100573;28;20081;-73
2022/12/13 12:12:50;;;;;;;146.07;43.55;;;-1.50;99.90;;;;;;5099501;28;20127;-73
2022/12/13 12:15:16;;;;;;;135.60;42.65;;;-1.50;99.90;;;;;;5101803;28;20028;-72
2022/12/13 12:17:42;;;;;;;139.85;43.15;;;-1.50;99.90;;;;;;5101356;28;20032;-73
2022/12/13 12:20:13;;;;;;;130.05;39.65;;;-1.50;99.90;;;;;;5101953;28;20084;-73
2022/12/13 12:22:53;;;;;;;136.57;45.70;;;-1.40;99.90;;;;;;5101202;28;20031;-74
2022/12/13 12:25:45;;;;;;;138.43;45.83;;;-1.40;99.90;;;;;;5102057;28;20105;-74
2022/12/13 12:28:33;;;;;;;158.30;46.30;;;-1.40;99.90;;;;;;5101642;28;20032;-74
2022/12/13 12:31:34;;;;;;;134.70;44.33;;;-1.40;99.90;;;;;;5099522;28;20483;-72
2022/12/13 12:34:25;;;;;;;135.95;44.45;;;-1.30;99.90;;;;;;5096346;28;20039;-73
2022/12/13 12:37:08;;;;;;;134.18;42.78;;;-1.30;99.90;;;;;;5098866;28;20042;-74
2022/12/13 12:40:06;;;;;;;140.02;46.78;;;-1.30;99.90;;;;;;5098995;28;20580;-73
2022/12/13 12:42:50;;;;;;;130.70;44.70;;;-1.20;99.90;;;;;;5102794;28;20067;-72